createdAt,value
2022-08-28T00:03:27.008Z,101102.81
2022-08-28T00:08:31.813Z,101102.94
2022-08-28T00:13:33.188Z,101105.47
2022-08-28T00:18:35.085Z,101113.03
2022-08-28T00:23:42.951Z,101121.22
2022-08-28T00:28:44.549Z,101123.72
2022-08-28T00:33:48.096Z,101137.31
2022-08-28T00:38:50.057Z,101130.06
2022-08-28T00:43:51.422Z,101124.41
2022-08-28T00:48:52.755Z,101135.22
2022-08-28T00:53:58.749Z,101132.34
2022-08-28T00:59:03.534Z,101131.91
2022-08-28T01:04:06.308Z,101132.56
2022-08-28T01:09:07.681Z,101131.53
2022-08-28T01:14:09.174Z,101133.38
2022-08-28T01:19:15.940Z,101124.53
2022-08-28T01:24:18.527Z,101135.00
2022-08-28T01:29:20.838Z,101123.47
2022-08-28T01:34:22.396Z,101115.56
2022-08-28T01:39:24.724Z,101128.31
2022-08-28T01:44:27.069Z,101123.59
2022-08-28T01:49:29.450Z,101117.28
2022-08-28T01:54:30.859Z,101122.69
2022-08-28T01:59:33.227Z,101129.47
2022-08-28T02:04:35.532Z,101129.91
2022-08-28T02:09:36.924Z,101137.03
2022-08-28T02:14:38.794Z,101137.84
2022-08-28T02:19:40.127Z,101141.28
2022-08-28T02:24:41.466Z,101140.13
2022-08-28T02:29:43.718Z,101146.69
2022-08-28T02:34:45.080Z,101136.91
2022-08-28T02:39:46.946Z,101140.03
2022-08-28T02:44:48.284Z,101140.16
2022-08-28T02:49:49.913Z,101138.78
2022-08-28T02:54:51.321Z,101140.03
2022-08-28T03:04:55.460Z,101130.84
2022-08-28T03:09:56.863Z,101132.91
2022-08-28T03:14:58.197Z,101133.56
2022-08-28T03:20:00.279Z,101140.81
2022-08-28T03:25:01.624Z,101132.06
2022-08-28T03:30:03.900Z,101134.41
2022-08-28T03:35:05.589Z,101132.31
2022-08-28T03:40:07.664Z,101128.63
2022-08-28T03:45:09.799Z,101138.22
2022-08-28T03:50:12.074Z,101140.59
2022-08-28T03:55:14.032Z,101146.22
2022-08-28T04:00:16.354Z,101145.53
2022-08-28T04:05:17.802Z,101149.16
2022-08-28T04:10:19.966Z,101150.63
2022-08-28T04:15:21.838Z,101145.19
2022-08-28T04:20:24.098Z,101152.66
2022-08-28T04:25:25.470Z,101148.69
2022-08-28T04:30:26.843Z,101160.50
2022-08-28T04:35:29.038Z,101156.41
2022-08-28T04:40:30.427Z,101170.84
2022-08-28T04:45:31.911Z,101171.41
2022-08-28T04:50:33.812Z,101169.72
2022-08-28T04:55:53.685Z,101180.09
2022-08-28T05:00:56.575Z,101181.19
2022-08-28T05:05:57.946Z,101199.75
2022-08-28T05:11:09.971Z,101196.75
2022-08-28T05:16:11.837Z,101209.31
2022-08-28T05:21:20.633Z,101215.59
2022-08-28T05:26:22.191Z,101224.22
2022-08-28T05:31:29.273Z,101224.34
2022-08-28T05:36:33.151Z,101229.81
2022-08-28T05:41:34.906Z,101224.19
2022-08-28T05:46:37.459Z,101231.22
2022-08-28T05:51:40.140Z,101223.94
2022-08-28T05:56:42.824Z,101235.84
2022-08-28T06:01:45.799Z,101233.59
2022-08-28T06:06:49.334Z,101238.69
2022-08-28T06:11:50.735Z,101239.34
2022-08-28T06:16:55.099Z,101244.31
2022-08-28T06:21:57.967Z,101250.41
2022-08-28T06:26:59.595Z,101253.66
2022-08-28T06:32:02.102Z,101248.06
2022-08-28T06:37:03.654Z,101251.16
2022-08-28T06:42:05.560Z,101254.38
2022-08-28T06:47:06.911Z,101250.03
2022-08-28T06:52:08.247Z,101251.56
2022-08-28T06:57:09.940Z,101249.47
2022-08-28T07:02:11.449Z,101239.94
2022-08-28T07:07:15.696Z,101244.94
2022-08-28T07:12:33.251Z,101253.78
2022-08-28T07:17:35.971Z,101246.78
2022-08-28T07:22:38.077Z,101256.47
2022-08-28T07:27:39.463Z,101257.06
2022-08-28T07:32:40.839Z,101246.97
2022-08-28T07:37:42.640Z,101258.84
2022-08-28T07:43:04.259Z,101255.03
2022-08-28T07:48:11.354Z,101251.28
2022-08-28T07:53:13.767Z,101250.91
2022-08-28T07:58:15.157Z,101257.16
2022-08-28T08:03:16.703Z,101259.91
2022-08-28T08:08:18.118Z,101259.84
2022-08-28T08:13:19.452Z,101263.34
2022-08-28T08:18:21.010Z,101267.69
2022-08-28T08:23:26.006Z,101261.69
2022-08-28T08:28:28.037Z,101261.72
2022-08-28T08:33:29.436Z,101259.72
2022-08-28T08:38:31.692Z,101269.25
2022-08-28T08:43:41.952Z,101265.44
2022-08-28T08:48:44.439Z,101275.44
2022-08-28T08:54:03.447Z,101269.00
2022-08-28T08:59:07.946Z,101272.69
2022-08-28T09:04:27.785Z,101270.03
2022-08-28T09:09:32.634Z,101266.28
2022-08-28T09:14:41.686Z,101270.94
2022-08-28T09:19:43.086Z,101275.66
2022-08-28T09:24:44.425Z,101279.31
2022-08-28T09:29:53.978Z,101273.34
2022-08-28T09:35:08.190Z,101275.91
2022-08-28T09:40:18.867Z,101277.13
2022-08-28T09:45:22.467Z,101273.88
2022-08-28T09:50:30.158Z,101266.31
2022-08-28T09:55:43.491Z,101265.94
2022-08-28T10:00:51.108Z,101267.50
2022-08-28T10:06:03.051Z,101262.59
2022-08-28T10:11:15.713Z,101259.72
2022-08-28T10:16:28.748Z,101254.94
2022-08-28T10:21:36.097Z,101254.34
2022-08-28T10:26:53.227Z,101248.31
2022-08-28T10:31:54.563Z,101257.13
2022-08-28T10:37:02.500Z,101255.84
2022-08-28T10:42:05.033Z,101241.59
2022-08-28T10:47:07.284Z,101256.06
2022-08-28T10:52:11.215Z,101251.50
2022-08-28T10:57:29.283Z,101246.75
2022-08-28T11:02:31.069Z,101247.19
2022-08-28T11:07:35.986Z,101236.59
2022-08-28T11:12:42.920Z,101239.50
2022-08-28T11:17:44.400Z,101243.59
2022-08-28T11:23:04.445Z,101246.50
2022-08-28T11:28:16.218Z,101246.59
2022-08-28T11:33:36.202Z,101242.19
2022-08-28T11:38:40.619Z,101241.13
2022-08-28T11:43:43.796Z,101239.88
2022-08-28T11:48:48.387Z,101233.84
2022-08-28T11:54:19.070Z,101235.56
2022-08-28T11:59:35.281Z,101248.75
2022-08-28T12:04:42.185Z,101253.69
2022-08-28T12:09:47.656Z,101241.25
2022-08-28T12:14:54.933Z,101244.78
2022-08-28T12:20:10.409Z,101249.09
2022-08-28T12:25:20.651Z,101240.75
2022-08-28T12:30:34.748Z,101238.44
2022-08-28T12:35:36.545Z,101229.56
2022-08-28T12:40:38.042Z,101228.59
2022-08-28T12:45:40.710Z,101230.72
2022-08-28T12:50:42.274Z,101215.19
2022-08-28T12:55:44.543Z,101218.47
2022-08-28T13:00:52.657Z,101220.53
2022-08-28T13:05:58.683Z,101214.56
2022-08-28T13:11:00.819Z,101216.09
2022-08-28T13:16:03.767Z,101204.81
2022-08-28T13:21:17.390Z,101198.97
2022-08-28T13:26:33.978Z,101191.63
2022-08-28T13:31:36.844Z,101205.78
2022-08-28T13:36:46.011Z,101197.03
2022-08-28T13:41:49.158Z,101190.16
2022-08-28T13:46:50.542Z,101191.53
2022-08-28T13:51:54.799Z,101179.59
2022-08-28T13:56:57.986Z,101174.72
2022-08-28T14:02:21.691Z,101169.56
2022-08-28T14:07:23.571Z,101166.69
2022-08-28T14:12:32.987Z,101167.09
2022-08-28T14:17:34.782Z,101163.03
2022-08-28T14:22:36.171Z,101169.38
2022-08-28T14:27:37.779Z,101161.50
2022-08-28T14:32:39.450Z,101177.53
2022-08-28T14:37:41.856Z,101168.97
2022-08-28T14:42:43.246Z,101167.06
2022-08-28T14:47:45.446Z,101172.28
2022-08-28T14:52:46.807Z,101168.13
2022-08-28T14:57:52.062Z,101168.97
2022-08-28T15:02:59.859Z,101163.03
2022-08-28T15:08:02.422Z,101162.94
2022-08-28T15:13:04.007Z,101164.69
2022-08-28T15:18:10.724Z,101163.84
2022-08-28T15:23:12.871Z,101163.22
2022-08-28T15:28:14.855Z,101157.44
2022-08-28T15:33:16.401Z,101160.97
2022-08-28T15:38:17.746Z,101155.47
2022-08-28T15:43:19.764Z,101144.53
2022-08-28T15:48:21.107Z,101143.72
2022-08-28T15:53:22.565Z,101159.28
2022-08-28T15:58:24.086Z,101156.47
2022-08-28T16:03:26.335Z,101158.09
2022-08-28T16:08:28.341Z,101154.16
2022-08-28T16:13:29.679Z,101147.78
2022-08-28T16:18:31.028Z,101141.44
2022-08-28T16:23:32.910Z,101148.91
2022-08-28T16:28:38.229Z,101151.03
2022-08-28T16:33:39.751Z,101148.06
2022-08-28T16:38:42.142Z,101153.72
2022-08-28T16:43:43.579Z,101156.44
2022-08-28T16:48:45.546Z,101152.16
2022-08-28T16:53:47.296Z,101154.63
2022-08-28T16:58:48.743Z,101154.34
2022-08-28T17:03:57.591Z,101150.63
2022-08-28T17:08:58.973Z,101149.81
2022-08-28T17:14:00.609Z,101149.81
2022-08-28T17:19:02.016Z,101150.63
2022-08-28T17:24:03.504Z,101149.78
2022-08-28T17:29:05.479Z,101151.63
2022-08-28T17:34:07.553Z,101152.91
2022-08-28T17:39:11.481Z,101167.72
2022-08-28T17:44:14.501Z,101166.06
2022-08-28T17:49:15.836Z,101172.63
2022-08-28T17:54:18.554Z,101169.34
2022-08-28T17:59:20.629Z,101182.00
2022-08-28T18:04:24.434Z,101175.25
2022-08-28T18:09:26.091Z,101179.66
2022-08-28T18:14:27.422Z,101176.00
2022-08-28T18:19:28.769Z,101185.41
2022-08-28T18:24:30.104Z,101190.81
2022-08-28T18:29:34.539Z,101190.38
2022-08-28T18:34:36.771Z,101201.38
2022-08-28T18:39:39.151Z,101214.53
2022-08-28T18:44:40.533Z,101217.66
2022-08-28T18:49:42.968Z,101224.19
2022-08-28T18:54:44.314Z,101236.34
2022-08-28T18:59:48.159Z,101242.66
2022-08-28T19:04:49.504Z,101246.34
2022-08-28T19:09:50.846Z,101248.75
2022-08-28T19:14:53.269Z,101249.94
2022-08-28T19:19:54.629Z,101252.47
2022-08-28T19:24:56.232Z,101258.03
2022-08-28T19:29:57.579Z,101262.94
2022-08-28T19:34:59.316Z,101269.88
2022-08-28T19:40:00.814Z,101276.09
2022-08-28T19:45:03.022Z,101293.06
2022-08-28T19:50:05.062Z,101301.00
2022-08-28T19:55:06.855Z,101303.59
2022-08-28T20:00:09.198Z,101308.84
2022-08-28T20:05:11.287Z,101316.06
2022-08-28T20:10:13.054Z,101315.91
2022-08-28T20:15:15.930Z,101325.50
2022-08-28T20:20:21.417Z,101324.66
2022-08-28T20:25:22.757Z,101328.66
2022-08-28T20:30:24.095Z,101331.44
2022-08-28T20:35:25.533Z,101334.84
2022-08-28T20:40:29.218Z,101329.13
2022-08-28T20:45:30.994Z,101330.28
2022-08-28T20:50:32.356Z,101329.53
2022-08-28T20:55:33.795Z,101342.97
2022-08-28T21:00:35.672Z,101344.63
2022-08-28T21:05:37.047Z,101351.66
2022-08-28T21:10:39.830Z,101359.66
2022-08-28T21:15:41.445Z,101360.47
2022-08-28T21:20:42.916Z,101363.84
2022-08-28T21:25:44.755Z,101372.41
2022-08-28T21:30:46.170Z,101368.84
2022-08-28T21:35:47.534Z,101379.81
2022-08-28T21:40:48.873Z,101386.00
2022-08-28T21:46:00.531Z,101390.38
2022-08-28T21:51:02.694Z,101400.50
2022-08-28T21:56:06.340Z,101397.09
2022-08-28T22:01:11.648Z,101396.06
2022-08-28T22:06:14.826Z,101400.19
2022-08-28T22:11:17.107Z,101408.38
2022-08-28T22:16:26.999Z,101402.09
2022-08-28T22:21:47.136Z,101417.31
2022-08-28T22:26:48.504Z,101418.97
2022-08-28T22:31:49.932Z,101426.03
2022-08-28T22:36:51.364Z,101419.34
2022-08-28T22:41:52.702Z,101429.88
2022-08-28T22:46:54.063Z,101437.56
2022-08-28T22:51:55.434Z,101429.06
2022-08-28T22:56:56.775Z,101427.44
2022-08-28T23:01:58.805Z,101424.19
2022-08-28T23:07:00.302Z,101432.91
2022-08-28T23:12:01.965Z,101433.69
2022-08-28T23:17:03.439Z,101428.03
2022-08-28T23:22:05.746Z,101428.78
2022-08-28T23:27:32.391Z,101440.28
2022-08-28T23:32:28.602Z,101434.19
2022-08-28T23:37:29.942Z,101431.53
2022-08-28T23:42:32.659Z,101427.69
2022-08-28T23:47:34.120Z,101426.44
2022-08-28T23:52:43.099Z,101422.72
2022-08-28T23:57:46.049Z,101414.84
